createdAt,value
2022-09-01T00:00:29.276Z,18.32
2022-09-01T00:02:58.375Z,17.71
2022-09-01T00:05:29.413Z,17.86
2022-09-01T00:08:01.921Z,17.60
2022-09-01T00:10:33.359Z,18.04
2022-09-01T00:13:04.581Z,18.44
2022-09-01T00:15:35.430Z,18.42
2022-09-01T00:18:04.590Z,18.24
2022-09-01T00:20:34.435Z,18.14
2022-09-01T00:23:03.452Z,18.14
2022-09-01T00:25:32.449Z,17.92
2022-09-01T00:28:05.247Z,18.37
2022-09-01T00:30:37.553Z,18.08
2022-09-01T00:33:06.897Z,17.92
2022-09-01T00:35:38.249Z,18.37
2022-09-01T00:38:07.614Z,17.63
2022-09-01T00:40:42.216Z,18.08
2022-09-01T00:43:17.053Z,18.73
2022-09-01T00:45:47.596Z,18.45
2022-09-01T00:48:17.400Z,18.47
2022-09-01T00:50:47.273Z,18.06
2022-09-01T00:53:20.226Z,17.80
2022-09-01T00:55:49.788Z,18.36
2022-09-01T00:58:19.944Z,18.11
2022-09-01T01:00:53.055Z,17.59
2022-09-01T01:03:24.154Z,18.16
2022-09-01T01:05:58.172Z,18.15
2022-09-01T01:08:34.221Z,18.13
2022-09-01T01:11:06.594Z,18.02
2022-09-01T01:13:51.217Z,17.47
2022-09-01T01:16:23.297Z,18.16
2022-09-01T01:18:53.565Z,17.51
2022-09-01T01:21:49.231Z,17.45
2022-09-01T01:24:26.683Z,17.78
2022-09-01T01:26:57.580Z,17.64
2022-09-01T01:29:27.520Z,18.60
2022-09-01T01:31:57.138Z,18.55
2022-09-01T01:34:26.511Z,17.55
2022-09-01T01:37:00.639Z,18.20
2022-09-01T01:39:33.157Z,18.52
2022-09-01T01:42:02.295Z,17.83
2022-09-01T01:44:32.370Z,18.03
2022-09-01T01:47:03.892Z,18.74
2022-09-01T01:49:35.310Z,17.62
2022-09-01T01:52:06.174Z,18.30
2022-09-01T01:54:39.102Z,18.43
2022-09-01T01:57:08.862Z,18.74
2022-09-01T01:59:40.970Z,18.33
2022-09-01T02:02:13.057Z,18.12
2022-09-01T02:04:43.957Z,18.14
2022-09-01T02:07:18.135Z,18.18
2022-09-01T02:09:51.132Z,18.09
2022-09-01T02:12:21.644Z,18.27
2022-09-01T02:14:54.469Z,17.86
2022-09-01T02:17:29.162Z,18.23
2022-09-01T02:19:58.457Z,18.33
2022-09-01T02:22:28.763Z,18.45
2022-09-01T02:25:02.162Z,18.91
2022-09-01T02:27:39.854Z,18.93
2022-09-01T02:30:13.788Z,18.33
2022-09-01T02:32:43.426Z,18.71
2022-09-01T02:35:17.949Z,18.17
2022-09-01T02:37:51.724Z,18.26
2022-09-01T02:40:23.985Z,18.38
2022-09-01T02:42:55.497Z,18.38
2022-09-01T02:45:24.869Z,18.57
2022-09-01T02:47:56.161Z,18.69
2022-09-01T02:50:27.016Z,18.60
2022-09-01T02:52:56.070Z,19.01
2022-09-01T02:55:26.522Z,18.61
2022-09-01T02:57:57.218Z,18.60
2022-09-01T03:00:31.525Z,18.73
2022-09-01T03:03:02.547Z,18.94
2022-09-01T03:05:34.646Z,18.94
2022-09-01T03:08:07.543Z,18.90
2022-09-01T03:10:41.717Z,18.78
2022-09-01T03:13:15.728Z,17.96
2022-09-01T03:15:45.709Z,18.41
2022-09-01T03:18:16.411Z,18.89
2022-09-01T03:20:53.218Z,19.02
2022-09-01T03:23:25.337Z,18.98
2022-09-01T03:25:58.698Z,19.12
2022-09-01T03:28:28.230Z,19.18
2022-09-01T03:30:59.691Z,19.22
2022-09-01T03:33:32.574Z,19.09
2022-09-01T03:36:02.300Z,19.03
2022-09-01T03:38:32.230Z,19.24
2022-09-01T03:41:06.867Z,19.11
2022-09-01T03:43:36.636Z,18.87
2022-09-01T03:46:09.956Z,18.87
2022-09-01T03:48:44.558Z,18.87
2022-09-01T03:51:14.700Z,18.29
2022-09-01T03:53:45.404Z,18.53
2022-09-01T03:56:16.787Z,18.87
2022-09-01T03:58:47.443Z,18.87
2022-09-01T04:01:20.248Z,19.08
2022-09-01T04:03:52.405Z,18.55
2022-09-01T04:06:26.216Z,18.48
2022-09-01T04:09:03.284Z,18.74
2022-09-01T04:11:36.355Z,18.60
2022-09-01T04:14:05.506Z,18.77
2022-09-01T04:17:03.539Z,18.84
2022-09-01T04:19:41.545Z,19.00
2022-09-01T04:22:13.587Z,18.82
2022-09-01T04:24:46.146Z,18.93
2022-09-01T04:27:21.918Z,18.95
2022-09-01T04:29:51.896Z,18.69
2022-09-01T04:32:24.489Z,18.86
2022-09-01T04:34:53.405Z,18.73
2022-09-01T04:37:24.431Z,18.67
2022-09-01T04:39:57.367Z,18.54
2022-09-01T04:42:34.166Z,18.50
2022-09-01T04:45:10.651Z,18.15
2022-09-01T04:47:42.275Z,18.40
2022-09-01T04:50:17.240Z,18.64
2022-09-01T04:52:48.892Z,18.77
2022-09-01T04:55:18.567Z,18.86
2022-09-01T04:57:54.920Z,18.96
2022-09-01T05:00:25.978Z,18.87
2022-09-01T05:03:03.445Z,18.42
2022-09-01T05:05:43.437Z,18.88
2022-09-01T05:08:18.066Z,18.49
2022-09-01T05:10:59.488Z,18.74
2022-09-01T05:13:29.946Z,18.97
2022-09-01T05:16:06.559Z,18.73
2022-09-01T05:18:36.549Z,18.53
2022-09-01T05:21:11.233Z,18.65
2022-09-01T05:23:41.291Z,18.55
2022-09-01T05:26:17.184Z,18.66
2022-09-01T05:28:49.082Z,18.47
2022-09-01T05:31:19.980Z,18.58
2022-09-01T05:33:53.072Z,18.81
2022-09-01T05:36:25.855Z,18.28
2022-09-01T05:38:55.204Z,18.50
2022-09-01T05:41:24.747Z,18.49
2022-09-01T05:44:00.789Z,17.96
2022-09-01T05:46:30.437Z,17.92
2022-09-01T05:49:00.197Z,17.84
2022-09-01T05:51:50.839Z,17.66
2022-09-01T05:54:25.942Z,17.83
2022-09-01T05:56:55.831Z,17.90
2022-09-01T05:59:41.208Z,18.58
2022-09-01T06:02:10.411Z,18.22
2022-09-01T06:04:44.445Z,18.42
2022-09-01T06:07:16.298Z,18.20
2022-09-01T06:09:49.025Z,18.04
2022-09-01T06:12:20.598Z,18.52
2022-09-01T06:14:54.506Z,18.43
2022-09-01T06:17:26.611Z,18.22
2022-09-01T06:19:57.432Z,18.37
2022-09-01T06:22:28.564Z,18.53
2022-09-01T06:25:02.653Z,18.60
2022-09-01T06:27:31.918Z,18.89
2022-09-01T06:30:03.068Z,19.05
2022-09-01T06:32:34.597Z,19.00
2022-09-01T06:35:07.085Z,18.89
2022-09-01T06:37:38.321Z,18.54
2022-09-01T06:40:10.778Z,18.99
2022-09-01T06:42:41.524Z,18.77
2022-09-01T06:45:15.081Z,18.98
2022-09-01T06:47:45.807Z,19.06
2022-09-01T06:51:14.537Z,19.09
2022-09-01T06:56:00.883Z,19.15
2022-09-01T06:58:31.248Z,19.26
2022-09-01T07:01:08.464Z,19.26
2022-09-01T07:03:40.265Z,19.02
2022-09-01T07:06:59.115Z,18.95
2022-09-01T07:17:31.784Z,19.23
2022-09-01T07:23:06.439Z,19.37
2022-09-01T07:28:37.650Z,19.46
2022-09-01T07:39:48.578Z,19.10
2022-09-01T07:45:28.468Z,19.23
2022-09-01T07:48:03.766Z,19.16
2022-09-01T07:51:34.758Z,19.25
2022-09-01T07:53:31.521Z,19.20
2022-09-01T07:56:09.578Z,19.19
2022-09-01T07:58:44.098Z,19.31
2022-09-01T08:01:17.369Z,19.21
2022-09-01T08:04:02.427Z,19.43
2022-09-01T08:06:41.360Z,19.38
2022-09-01T08:09:11.912Z,19.56
2022-09-01T08:12:02.874Z,19.71
2022-09-01T08:14:34.245Z,19.67
2022-09-01T08:19:57.792Z,19.44
2022-09-01T08:22:28.683Z,19.47
2022-09-01T08:25:00.220Z,19.46
2022-09-01T08:27:29.355Z,19.46
2022-09-01T08:30:01.455Z,19.41
2022-09-01T08:32:32.545Z,19.57
2022-09-01T08:35:02.129Z,19.64
2022-09-01T08:37:32.766Z,19.57
2022-09-01T08:40:04.021Z,19.75
2022-09-01T08:42:54.638Z,19.62
2022-09-01T08:45:30.091Z,19.74
2022-09-01T08:48:37.151Z,19.72
2022-09-01T08:51:14.898Z,19.55
2022-09-01T08:53:54.296Z,19.51
2022-09-01T08:56:25.443Z,19.75
2022-09-01T08:58:54.622Z,19.58
2022-09-01T09:01:33.782Z,19.84
2022-09-01T09:04:20.005Z,19.72
2022-09-01T09:06:58.163Z,19.92
2022-09-01T09:09:39.595Z,19.65
2022-09-01T09:12:34.226Z,19.66
2022-09-01T09:15:19.209Z,19.74
2022-09-01T09:18:00.445Z,20.04
2022-09-01T09:20:30.333Z,19.85
2022-09-01T09:22:59.910Z,19.88
2022-09-01T09:25:34.233Z,19.75
2022-09-01T09:28:03.946Z,19.95
2022-09-01T09:30:33.606Z,19.90
2022-09-01T09:33:44.268Z,19.88
2022-09-01T09:35:57.693Z,20.05
2022-09-01T09:38:33.309Z,20.10
2022-09-01T09:41:26.866Z,20.16
2022-09-01T09:44:01.747Z,20.19
2022-09-01T09:46:40.575Z,20.38
2022-09-01T09:49:34.362Z,20.43
2022-09-01T09:52:19.759Z,20.47
2022-09-01T09:55:05.676Z,20.62
2022-09-01T09:57:41.706Z,20.50
2022-09-01T10:00:25.908Z,20.51
2022-09-01T10:03:00.006Z,20.49
2022-09-01T10:05:54.272Z,20.41
2022-09-01T10:08:48.218Z,20.32
2022-09-01T10:11:36.243Z,20.46
2022-09-01T10:14:35.481Z,20.63
2022-09-01T10:17:16.414Z,20.75
2022-09-01T10:19:54.297Z,20.97
2022-09-01T10:22:25.162Z,21.31
2022-09-01T10:24:54.242Z,21.37
2022-09-01T10:27:26.329Z,21.25
2022-09-01T10:30:14.130Z,21.26
2022-09-01T10:32:56.118Z,21.50
2022-09-01T10:35:30.050Z,21.66
2022-09-01T10:38:02.068Z,21.65
2022-09-01T10:40:49.153Z,21.77
2022-09-01T10:43:44.280Z,21.84
2022-09-01T10:46:50.197Z,21.90
2022-09-01T10:49:51.693Z,22.19
2022-09-01T10:53:09.943Z,21.95
2022-09-01T10:55:46.625Z,21.53
2022-09-01T11:02:34.667Z,21.31
2022-09-01T11:05:19.928Z,21.47
2022-09-01T11:08:14.924Z,21.35
2022-09-01T11:10:53.248Z,21.32
2022-09-01T11:13:39.251Z,21.13
2022-09-01T11:16:47.793Z,21.05
2022-09-01T11:20:06.959Z,21.05
2022-09-01T11:22:40.413Z,20.97
2022-09-01T11:25:43.900Z,20.97
2022-09-01T11:28:44.752Z,20.87
2022-09-01T11:31:41.166Z,21.01
2022-09-01T11:34:16.260Z,20.93
2022-09-01T11:37:01.441Z,20.85
2022-09-01T11:39:41.737Z,20.99
2022-09-01T11:42:22.019Z,20.92
2022-09-01T11:44:58.241Z,20.77
2022-09-01T11:47:31.815Z,20.79
2022-09-01T11:50:05.550Z,20.89
2022-09-01T11:52:41.555Z,20.82
2022-09-01T11:55:13.603Z,20.77
2022-09-01T11:57:43.166Z,20.75
2022-09-01T12:00:28.165Z,20.89
2022-09-01T12:02:57.278Z,21.01
2022-09-01T12:05:33.397Z,21.10
2022-09-01T12:08:14.134Z,21.26
2022-09-01T12:10:45.499Z,21.36
2022-09-01T12:13:24.540Z,21.53
2022-09-01T12:16:18.467Z,21.76
2022-09-01T12:18:51.497Z,21.80
2022-09-01T12:21:24.792Z,21.62
2022-09-01T12:23:56.677Z,21.45
2022-09-01T12:26:31.236Z,21.21
2022-09-01T12:29:00.499Z,21.24
2022-09-01T12:31:39.170Z,21.05
2022-09-01T12:34:28.704Z,21.12
2022-09-01T12:37:11.340Z,21.12
2022-09-01T12:39:45.566Z,20.97
2022-09-01T12:42:27.513Z,20.83
2022-09-01T12:44:59.863Z,20.94
2022-09-01T12:47:50.838Z,20.87
2022-09-01T12:50:48.168Z,20.88
2022-09-01T12:53:24.562Z,20.98
2022-09-01T12:56:18.411Z,20.90
2022-09-01T12:58:54.819Z,20.91
2022-09-01T13:01:31.705Z,20.90
2022-09-01T13:04:12.689Z,20.79
2022-09-01T13:06:42.042Z,20.99
2022-09-01T13:09:11.321Z,20.90
2022-09-01T13:14:31.907Z,20.96
2022-09-01T13:17:01.120Z,20.85
2022-09-01T13:19:30.577Z,20.97
2022-09-01T13:22:00.202Z,20.73
2022-09-01T13:24:31.563Z,20.80
2022-09-01T13:29:52.766Z,20.99
2022-09-01T13:32:23.981Z,21.01
2022-09-01T13:34:55.265Z,20.98
2022-09-01T13:37:25.540Z,21.00
2022-09-01T13:39:54.733Z,20.99
2022-09-01T13:42:28.947Z,20.98
2022-09-01T13:44:58.447Z,20.96
2022-09-01T13:47:29.473Z,20.87
2022-09-01T13:50:10.424Z,20.86
2022-09-01T13:52:42.768Z,20.93
2022-09-01T13:55:16.745Z,21.03
2022-09-01T13:57:52.660Z,21.07
2022-09-01T14:00:29.420Z,21.01
2022-09-01T14:03:06.173Z,21.07
2022-09-01T14:05:40.961Z,20.92
2022-09-01T14:08:12.184Z,20.90
2022-09-01T14:10:44.097Z,20.91
2022-09-01T14:13:15.663Z,20.91
2022-09-01T14:15:47.207Z,20.85
2022-09-01T14:18:19.507Z,21.01
2022-09-01T14:20:53.947Z,21.04
2022-09-01T14:23:23.562Z,21.01
2022-09-01T14:25:53.145Z,21.01
2022-09-01T14:28:24.602Z,21.03
2022-09-01T14:33:27.377Z,21.07
2022-09-01T14:35:56.657Z,21.11
2022-09-01T14:38:26.079Z,20.93
2022-09-01T14:40:55.252Z,20.98
2022-09-01T14:43:26.691Z,21.01
2022-09-01T14:46:06.681Z,20.98
2022-09-01T14:48:36.487Z,21.05
2022-09-01T14:51:06.979Z,20.97
2022-09-01T14:53:44.481Z,20.80
2022-09-01T14:56:13.647Z,20.88
2022-09-01T14:58:47.026Z,21.02
2022-09-01T15:01:33.259Z,20.98
2022-09-01T15:04:03.653Z,21.02
2022-09-01T15:06:34.059Z,20.94
2022-09-01T15:09:03.724Z,20.90
2022-09-01T15:11:32.972Z,20.95
2022-09-01T15:14:06.848Z,21.07
2022-09-01T15:16:39.640Z,20.95
2022-09-01T15:19:12.241Z,21.04
2022-09-01T15:21:44.950Z,20.98
2022-09-01T15:24:14.681Z,20.91
2022-09-01T15:26:44.497Z,20.91
2022-09-01T15:29:15.342Z,21.06
2022-09-01T15:31:46.143Z,21.05
2022-09-01T15:34:18.285Z,20.97
2022-09-01T15:36:47.723Z,20.97
2022-09-01T15:39:16.925Z,20.94
2022-09-01T15:41:47.984Z,20.99
2022-09-01T15:44:20.999Z,20.99
2022-09-01T15:46:50.871Z,21.07
2022-09-01T15:49:20.392Z,20.99
2022-09-01T15:51:49.733Z,20.86
2022-09-01T15:54:21.445Z,20.82
2022-09-01T15:56:50.593Z,21.03
2022-09-01T15:59:23.416Z,20.83
2022-09-01T16:01:54.082Z,20.89
2022-09-01T16:04:27.573Z,20.90
2022-09-01T16:06:59.015Z,20.85
2022-09-01T16:09:29.224Z,20.76
2022-09-01T16:12:00.726Z,20.88
2022-09-01T16:14:33.301Z,20.90
2022-09-01T16:17:08.036Z,20.85
2022-09-01T16:19:51.703Z,20.70
2022-09-01T16:22:26.967Z,20.86
2022-09-01T16:25:03.858Z,20.74
2022-09-01T16:27:37.855Z,20.81
2022-09-01T16:30:11.840Z,20.80
2022-09-01T16:32:46.598Z,20.83
2022-09-01T16:35:19.925Z,20.70
2022-09-01T16:37:57.905Z,20.81
2022-09-01T16:40:42.979Z,20.65
2022-09-01T16:43:21.055Z,20.77
2022-09-01T16:46:00.651Z,20.83
2022-09-01T16:48:41.960Z,20.75
2022-09-01T16:51:22.224Z,20.73
2022-09-01T16:54:14.878Z,20.72
2022-09-01T16:56:54.499Z,20.53
2022-09-01T16:59:33.908Z,20.66
2022-09-01T17:02:22.665Z,20.52
2022-09-01T17:05:01.859Z,20.50
2022-09-01T17:07:40.045Z,20.62
2022-09-01T17:10:20.799Z,20.65
2022-09-01T17:12:56.133Z,20.54
2022-09-01T17:15:40.820Z,20.37
2022-09-01T17:18:22.591Z,20.32
2022-09-01T17:20:58.554Z,20.32
2022-09-01T17:23:34.679Z,20.40
2022-09-01T17:26:10.607Z,20.24
2022-09-01T17:28:47.344Z,20.41
2022-09-01T17:31:30.276Z,20.31
2022-09-01T17:34:14.783Z,20.33
2022-09-01T17:36:55.488Z,20.27
2022-09-01T17:39:38.364Z,20.42
2022-09-01T17:42:18.828Z,20.45
2022-09-01T17:44:56.264Z,20.38
2022-09-01T17:47:38.196Z,20.37
2022-09-01T17:50:19.138Z,20.30
2022-09-01T17:53:03.356Z,20.34
2022-09-01T17:55:49.859Z,20.40
2022-09-01T17:58:40.969Z,20.15
2022-09-01T18:01:19.519Z,20.16
2022-09-01T18:04:28.030Z,20.19
2022-09-01T18:07:10.752Z,20.26
2022-09-01T18:09:47.203Z,20.24
2022-09-01T18:12:27.202Z,20.13
2022-09-01T18:15:09.056Z,20.14
2022-09-01T18:17:43.424Z,20.15
2022-09-01T18:20:19.328Z,20.23
2022-09-01T18:23:06.607Z,20.27
2022-09-01T18:25:41.781Z,20.24
2022-09-01T18:28:11.516Z,20.35
2022-09-01T18:30:54.421Z,20.20
2022-09-01T18:33:30.333Z,20.21
2022-09-01T18:36:18.334Z,20.00
2022-09-01T18:38:58.674Z,20.12
2022-09-01T18:41:41.717Z,20.01
2022-09-01T18:44:28.136Z,19.99
2022-09-01T18:47:06.031Z,19.93
2022-09-01T18:49:48.302Z,19.79
2022-09-01T18:52:43.151Z,20.05
2022-09-01T18:55:22.462Z,20.05
2022-09-01T18:57:56.378Z,20.08
2022-09-01T19:00:32.090Z,19.88
2022-09-01T19:03:19.963Z,20.03
2022-09-01T19:06:19.345Z,20.02
2022-09-01T19:09:03.703Z,20.02
2022-09-01T19:11:56.573Z,19.86
2022-09-01T19:14:34.887Z,20.00
2022-09-01T19:17:26.677Z,19.90
2022-09-01T19:20:01.560Z,19.86
2022-09-01T19:22:40.985Z,19.68
2022-09-01T19:25:30.764Z,19.82
2022-09-01T19:28:11.121Z,19.95
2022-09-01T19:30:48.269Z,19.81
2022-09-01T19:33:26.423Z,19.73
2022-09-01T19:35:59.548Z,19.92
2022-09-01T19:38:34.421Z,20.00
2022-09-01T19:41:11.647Z,19.92
2022-09-01T19:43:43.094Z,19.69
2022-09-01T19:46:25.068Z,19.67
2022-09-01T19:48:59.506Z,19.86
2022-09-01T19:51:35.704Z,19.99
2022-09-01T19:54:16.205Z,19.82
2022-09-01T19:56:54.884Z,19.71
2022-09-01T19:59:36.316Z,19.82
2022-09-01T20:02:15.829Z,19.70
2022-09-01T20:04:53.637Z,19.80
2022-09-01T20:07:34.993Z,19.83
2022-09-01T20:10:18.897Z,19.85
2022-09-01T20:12:57.220Z,19.80
2022-09-01T20:15:35.046Z,19.80
2022-09-01T20:18:09.677Z,19.88
2022-09-01T20:20:44.960Z,19.96
2022-09-01T20:23:25.798Z,19.79
2022-09-01T20:26:00.098Z,19.73
2022-09-01T20:28:43.049Z,19.78
2022-09-01T20:31:23.012Z,19.60
2022-09-01T20:33:58.830Z,19.58
2022-09-01T20:36:36.173Z,19.75
2022-09-01T20:39:29.845Z,19.87
2022-09-01T20:42:05.973Z,19.59
2022-09-01T20:44:43.456Z,19.73
2022-09-01T20:47:16.230Z,19.74
2022-09-01T20:49:45.814Z,19.76
2022-09-01T20:52:23.344Z,19.52
2022-09-01T20:54:58.066Z,19.46
2022-09-01T20:57:41.240Z,19.26
2022-09-01T21:00:24.412Z,19.48
2022-09-01T21:03:12.016Z,19.55
2022-09-01T21:05:55.885Z,19.63
2022-09-01T21:08:44.458Z,19.52
2022-09-01T21:11:30.303Z,19.48
2022-09-01T21:14:13.872Z,19.48
2022-09-01T21:16:56.966Z,19.60
2022-09-01T21:19:40.544Z,19.47
2022-09-01T21:22:13.126Z,19.59
2022-09-01T21:24:43.640Z,19.53
2022-09-01T21:27:17.801Z,19.49
2022-09-01T21:29:58.997Z,19.49
2022-09-01T21:32:30.495Z,19.44
2022-09-01T21:35:01.973Z,19.43
2022-09-01T21:37:31.562Z,19.46
2022-09-01T21:40:03.243Z,19.63
2022-09-01T21:42:39.221Z,19.33
2022-09-01T21:45:15.230Z,19.32
2022-09-01T21:47:47.385Z,19.54
2022-09-01T21:50:20.469Z,19.34
2022-09-01T21:52:49.836Z,19.44
2022-09-01T21:55:22.895Z,19.53
2022-09-01T21:57:53.898Z,19.57
2022-09-01T22:00:28.055Z,19.35
2022-09-01T22:02:59.500Z,19.23
2022-09-01T22:05:31.216Z,19.18
2022-09-01T22:08:01.642Z,19.27
2022-09-01T22:10:32.334Z,19.55
2022-09-01T22:13:04.109Z,19.60
2022-09-01T22:15:33.215Z,19.40
2022-09-01T22:18:02.365Z,19.23
2022-09-01T22:20:32.935Z,19.34
2022-09-01T22:23:02.932Z,19.13
2022-09-01T22:25:34.357Z,19.00
2022-09-01T22:28:06.499Z,19.29
2022-09-01T22:30:36.260Z,19.28
2022-09-01T22:33:07.836Z,18.92
2022-09-01T22:35:43.274Z,18.97
2022-09-01T22:38:12.668Z,19.34
2022-09-01T22:40:46.850Z,19.04
2022-09-01T22:43:19.744Z,19.02
2022-09-01T22:45:53.189Z,19.08
2022-09-01T22:48:24.973Z,19.03
2022-09-01T22:50:59.033Z,18.91
2022-09-01T22:53:31.365Z,19.02
2022-09-01T22:56:01.552Z,19.14
2022-09-01T22:58:33.802Z,19.36
2022-09-01T23:01:04.100Z,19.36
2022-09-01T23:03:33.619Z,19.41
2022-09-01T23:06:27.401Z,19.29
2022-09-01T23:08:59.344Z,18.99
2022-09-01T23:11:29.676Z,19.29
2022-09-01T23:13:59.520Z,19.14
2022-09-01T23:16:29.186Z,19.28
2022-09-01T23:18:59.344Z,19.22
2022-09-01T23:21:36.238Z,19.11
2022-09-01T23:24:08.919Z,19.30
2022-09-01T23:26:39.992Z,19.30
2022-09-01T23:29:10.392Z,19.21
2022-09-01T23:31:41.345Z,18.99
2022-09-01T23:34:13.448Z,18.92
2022-09-01T23:36:44.724Z,19.15
2022-09-01T23:39:14.113Z,19.29
2022-09-01T23:41:47.989Z,19.10
2022-09-01T23:44:18.017Z,19.29
2022-09-01T23:46:49.001Z,18.88
2022-09-01T23:49:19.989Z,19.17
2022-09-01T23:51:54.834Z,18.94
2022-09-01T23:54:24.512Z,18.97
2022-09-01T23:56:54.147Z,18.57
2022-09-01T23:59:27.652Z,18.38
